createdAt,value
2022-11-10T00:00:57.311Z,100887.44
2022-11-10T00:03:24.737Z,100896.28
2022-11-10T00:05:51.283Z,100902.34
2022-11-10T00:08:17.747Z,100906.84
2022-11-10T00:10:59.379Z,100918.03
2022-11-10T00:13:27.088Z,100917.41
2022-11-10T00:16:12.858Z,100930.09
2022-11-10T00:18:39.335Z,100924.88
2022-11-10T00:21:07.695Z,100931.16
2022-11-10T00:23:34.424Z,100934.78
2022-11-10T00:26:01.041Z,100943.22
2022-11-10T00:28:30.784Z,100935.22
2022-11-10T00:30:57.677Z,100945.13
2022-11-10T00:33:27.168Z,100948.50
2022-11-10T00:35:53.584Z,100956.28
2022-11-10T00:38:20.044Z,100956.38
2022-11-10T00:40:47.831Z,100969.31
2022-11-10T00:43:14.279Z,100982.38
2022-11-10T00:45:43.185Z,100985.00
2022-11-10T00:48:09.713Z,100986.03
2022-11-10T00:50:36.144Z,100991.16
2022-11-10T00:53:02.757Z,101002.41
2022-11-10T00:55:29.189Z,100998.47
2022-11-10T00:57:55.696Z,101003.78
2022-11-10T01:00:22.283Z,101004.19
2022-11-10T01:02:48.780Z,101001.28
2022-11-10T01:05:15.259Z,101002.22
2022-11-10T01:07:41.694Z,101016.88
2022-11-10T01:10:08.380Z,101022.09
2022-11-10T01:12:34.924Z,101022.19
2022-11-10T01:15:01.371Z,101025.84
2022-11-10T01:17:29.818Z,101029.25
2022-11-10T01:19:56.444Z,101032.88
2022-11-10T01:22:23.003Z,101035.44
2022-11-10T01:24:49.464Z,101042.69
2022-11-10T01:27:15.908Z,101050.72
2022-11-10T01:29:42.396Z,101049.03
2022-11-10T01:32:08.836Z,101062.06
2022-11-10T01:34:35.290Z,101062.63
2022-11-10T01:37:01.740Z,101078.28
2022-11-10T01:39:28.249Z,101063.91
2022-11-10T01:41:54.744Z,101076.63
2022-11-10T01:44:24.663Z,101071.84
2022-11-10T01:46:51.298Z,101067.56
2022-11-10T01:49:20.532Z,101073.16
2022-11-10T01:51:49.992Z,101075.16
2022-11-10T01:54:22.780Z,101077.00
2022-11-10T01:56:52.041Z,101081.59
2022-11-10T01:59:23.132Z,101089.41
2022-11-10T02:01:50.565Z,101095.22
2022-11-10T02:04:19.652Z,101084.91
2022-11-10T02:06:47.315Z,101086.69
2022-11-10T02:09:14.141Z,101090.88
2022-11-10T02:11:42.326Z,101093.63
2022-11-10T02:14:09.072Z,101087.41
2022-11-10T02:16:35.986Z,101085.91
2022-11-10T02:19:23.778Z,101099.66
2022-11-10T02:21:50.229Z,101096.16
2022-11-10T02:24:17.105Z,101104.81
2022-11-10T02:26:47.252Z,101104.09
2022-11-10T02:29:14.123Z,101100.94
2022-11-10T02:31:40.586Z,101113.13
2022-11-10T02:34:07.096Z,101115.41
2022-11-10T02:36:33.747Z,101122.50
2022-11-10T02:39:00.277Z,101123.56
2022-11-10T02:41:26.793Z,101117.94
2022-11-10T02:43:54.477Z,101125.63
2022-11-10T02:46:20.922Z,101125.28
2022-11-10T02:48:47.473Z,101123.69
2022-11-10T02:51:14.204Z,101124.03
2022-11-10T02:53:40.669Z,101126.81
2022-11-10T02:56:07.380Z,101126.41
2022-11-10T02:58:33.868Z,101138.53
2022-11-10T03:01:00.360Z,101137.22
2022-11-10T03:03:27.341Z,101131.72
2022-11-10T03:05:53.821Z,101136.81
2022-11-10T03:08:20.282Z,101144.19
2022-11-10T03:10:46.746Z,101138.97
2022-11-10T03:13:13.212Z,101144.78
2022-11-10T03:15:39.736Z,101154.03
2022-11-10T03:18:06.235Z,101153.16
2022-11-10T03:20:32.716Z,101139.38
2022-11-10T03:23:04.018Z,101152.69
2022-11-10T03:25:30.823Z,101152.56
2022-11-10T03:27:57.258Z,101159.84
2022-11-10T03:30:23.838Z,101169.66
2022-11-10T03:32:50.266Z,101162.88
2022-11-10T03:35:16.766Z,101164.38
2022-11-10T03:37:43.254Z,101169.44
2022-11-10T03:40:10.295Z,101170.31
2022-11-10T03:42:36.743Z,101166.19
2022-11-10T03:45:03.340Z,101176.84
2022-11-10T03:47:29.783Z,101173.31
2022-11-10T03:49:56.214Z,101174.75
2022-11-10T03:52:22.675Z,101182.38
2022-11-10T03:54:49.137Z,101181.63
2022-11-10T03:57:15.997Z,101198.91
2022-11-10T03:59:42.485Z,101194.34
2022-11-10T04:02:09.081Z,101198.41
2022-11-10T04:04:54.373Z,101208.41
2022-11-10T04:07:39.482Z,101207.34
2022-11-10T04:10:06.603Z,101213.19
2022-11-10T04:12:51.776Z,101222.56
2022-11-10T04:15:36.770Z,101231.66
2022-11-10T04:18:21.592Z,101235.13
2022-11-10T04:20:48.796Z,101231.75
2022-11-10T04:23:27.981Z,101228.53
2022-11-10T04:26:17.596Z,101233.38
2022-11-10T04:28:45.629Z,101226.38
2022-11-10T04:31:13.009Z,101242.66
2022-11-10T04:33:40.159Z,101246.75
2022-11-10T04:36:07.437Z,101238.31
2022-11-10T04:38:34.019Z,101243.53
2022-11-10T04:41:00.889Z,101247.22
2022-11-10T04:43:27.783Z,101258.63
2022-11-10T04:45:54.550Z,101254.06
2022-11-10T04:48:21.518Z,101264.22
2022-11-10T04:50:47.999Z,101280.81
2022-11-10T04:53:14.681Z,101280.47
2022-11-10T04:55:42.872Z,101280.91
2022-11-10T04:58:09.511Z,101283.56
2022-11-10T05:00:36.741Z,101293.69
2022-11-10T05:03:05.379Z,101291.22
2022-11-10T05:05:31.883Z,101289.91
2022-11-10T05:07:58.861Z,101292.28
2022-11-10T05:10:25.912Z,101296.09
2022-11-10T05:12:58.771Z,101302.09
2022-11-10T05:15:25.606Z,101298.03
2022-11-10T05:17:53.535Z,101304.13
2022-11-10T05:20:21.671Z,101312.06
2022-11-10T05:23:09.622Z,101307.75
2022-11-10T05:25:38.501Z,101313.88
2022-11-10T05:28:06.482Z,101308.50
2022-11-10T05:30:33.929Z,101303.47
2022-11-10T05:33:00.365Z,101323.97
2022-11-10T05:35:26.806Z,101317.69
2022-11-10T05:37:53.268Z,101306.91
2022-11-10T05:40:19.745Z,101323.31
2022-11-10T05:42:47.588Z,101318.94
2022-11-10T05:45:15.316Z,101328.13
2022-11-10T05:47:41.950Z,101332.31
2022-11-10T05:50:09.017Z,101335.75
2022-11-10T05:52:35.684Z,101346.03
2022-11-10T05:55:02.137Z,101341.53
2022-11-10T05:57:28.621Z,101346.78
2022-11-10T05:59:55.099Z,101347.28
2022-11-10T06:02:21.541Z,101344.81
2022-11-10T06:04:48.000Z,101356.31
2022-11-10T06:07:14.812Z,101356.00
2022-11-10T06:09:41.516Z,101362.19
2022-11-10T06:12:08.141Z,101379.19
2022-11-10T06:14:34.652Z,101385.22
2022-11-10T06:17:01.111Z,101384.13
2022-11-10T06:19:27.584Z,101390.31
2022-11-10T06:22:00.472Z,101404.50
2022-11-10T06:24:28.976Z,101401.72
2022-11-10T06:26:55.409Z,101402.66
2022-11-10T06:29:26.656Z,101401.72
2022-11-10T06:31:53.468Z,101402.44
2022-11-10T06:34:19.930Z,101405.47
2022-11-10T06:36:46.356Z,101415.75
2022-11-10T06:39:12.874Z,101421.13
2022-11-10T06:41:39.298Z,101412.00
2022-11-10T06:44:06.474Z,101426.59
2022-11-10T06:46:35.869Z,101437.09
2022-11-10T06:49:04.945Z,101432.13
2022-11-10T06:51:31.363Z,101441.16
2022-11-10T06:53:57.898Z,101454.72
2022-11-10T06:56:24.410Z,101451.78
2022-11-10T06:58:50.851Z,101458.16
2022-11-10T07:01:22.118Z,101465.94
2022-11-10T07:04:17.541Z,101471.19
2022-11-10T07:06:35.490Z,101475.63
2022-11-10T07:09:01.981Z,101483.66
2022-11-10T07:11:28.415Z,101479.94
2022-11-10T07:13:54.873Z,101478.19
2022-11-10T07:16:24.482Z,101478.91
2022-11-10T07:18:51.813Z,101485.00
2022-11-10T07:21:18.311Z,101491.75
2022-11-10T07:23:46.855Z,101496.25
2022-11-10T07:26:13.465Z,101491.75
2022-11-10T07:28:39.917Z,101510.50
2022-11-10T07:31:06.361Z,101499.44
2022-11-10T07:33:32.803Z,101500.47
2022-11-10T07:36:03.926Z,101510.28
2022-11-10T07:38:30.402Z,101519.03
2022-11-10T07:40:57.000Z,101510.34
2022-11-10T07:43:25.229Z,101513.66
2022-11-10T07:45:52.912Z,101519.88
2022-11-10T07:48:19.877Z,101529.13
2022-11-10T07:50:46.706Z,101541.91
2022-11-10T07:53:15.393Z,101539.84
2022-11-10T07:55:44.236Z,101548.53
2022-11-10T07:58:12.224Z,101541.16
2022-11-10T08:00:38.959Z,101538.91
2022-11-10T08:03:07.405Z,101535.22
2022-11-10T08:05:34.343Z,101541.94
2022-11-10T08:08:00.847Z,101546.94
2022-11-10T08:10:28.391Z,101555.69
2022-11-10T08:13:02.266Z,101564.13
2022-11-10T08:15:29.687Z,101550.44
2022-11-10T08:18:08.717Z,101536.41
2022-11-10T08:20:35.315Z,101546.75
2022-11-10T08:23:05.048Z,101543.22
2022-11-10T08:28:06.994Z,101556.69
2022-11-10T08:30:35.303Z,101567.25
2022-11-10T08:33:03.044Z,101561.06
2022-11-10T08:35:31.065Z,101561.28
2022-11-10T08:37:57.917Z,101578.31
2022-11-10T08:40:27.701Z,101577.69
2022-11-10T08:43:01.624Z,101588.41
2022-11-10T08:45:28.579Z,101587.13
2022-11-10T08:48:03.120Z,101584.13
2022-11-10T08:50:29.952Z,101589.56
2022-11-10T08:52:57.291Z,101591.16
2022-11-10T08:55:23.898Z,101592.44
2022-11-10T08:57:50.368Z,101589.44
2022-11-10T09:00:17.495Z,101595.13
2022-11-10T09:02:44.039Z,101602.59
2022-11-10T09:05:10.671Z,101598.88
2022-11-10T09:07:45.107Z,101590.91
2022-11-10T09:10:13.172Z,101594.72
2022-11-10T09:12:40.998Z,101607.28
2022-11-10T09:15:08.372Z,101601.56
2022-11-10T09:17:35.051Z,101598.53
2022-11-10T09:20:01.758Z,101605.84
2022-11-10T09:22:28.390Z,101606.66
2022-11-10T09:24:54.846Z,101615.91
2022-11-10T09:27:21.433Z,101622.22
2022-11-10T09:29:47.884Z,101616.84
2022-11-10T09:32:14.307Z,101629.09
2022-11-10T09:34:40.767Z,101625.19
2022-11-10T09:37:07.218Z,101637.75
2022-11-10T09:39:33.658Z,101633.44
2022-11-10T09:42:00.091Z,101633.31
2022-11-10T09:44:31.074Z,101631.94
2022-11-10T09:47:19.023Z,101636.44
2022-11-10T09:50:00.996Z,101640.97
2022-11-10T09:52:29.989Z,101639.59
2022-11-10T09:55:03.702Z,101644.94
2022-11-10T09:57:30.424Z,101653.88
2022-11-10T09:59:57.033Z,101651.72
2022-11-10T10:02:38.616Z,101656.69
2022-11-10T10:05:47.402Z,101645.66
2022-11-10T10:08:22.985Z,101667.53
2022-11-10T10:11:07.253Z,101673.97
2022-11-10T10:13:51.283Z,101683.84
2022-11-10T10:16:49.843Z,101681.22
2022-11-10T10:19:58.490Z,101682.19
2022-11-10T10:22:34.952Z,101677.72
2022-11-10T10:25:04.186Z,101692.22
2022-11-10T10:27:31.776Z,101686.19
2022-11-10T10:29:58.385Z,101678.72
2022-11-10T10:32:26.680Z,101677.81
2022-11-10T10:34:53.157Z,101680.34
2022-11-10T10:37:46.473Z,101679.91
2022-11-10T10:40:31.059Z,101675.78
2022-11-10T10:42:59.718Z,101661.91
2022-11-10T10:45:29.074Z,101668.72
2022-11-10T10:47:57.422Z,101686.09
2022-11-10T10:50:35.552Z,101688.88
2022-11-10T10:53:11.075Z,101683.59
2022-11-10T10:55:38.138Z,101687.41
2022-11-10T10:58:18.735Z,101698.63
2022-11-10T11:00:47.808Z,101696.50
2022-11-10T11:03:48.737Z,101692.31
2022-11-10T11:06:15.536Z,101695.72
2022-11-10T11:09:04.306Z,101699.97
2022-11-10T11:11:33.396Z,101704.97
2022-11-10T11:14:19.984Z,101695.94
2022-11-10T11:17:04.437Z,101703.47
2022-11-10T11:19:33.749Z,101703.22
2022-11-10T11:22:12.373Z,101706.97
2022-11-10T11:25:06.807Z,101709.88
2022-11-10T11:28:03.741Z,101702.47
2022-11-10T11:30:53.408Z,101708.97
2022-11-10T11:33:42.040Z,101696.78
2022-11-10T11:36:33.154Z,101702.91
2022-11-10T11:39:21.964Z,101701.81
2022-11-10T11:42:20.061Z,101704.59
2022-11-10T11:45:14.297Z,101707.44
2022-11-10T11:48:19.799Z,101711.38
2022-11-10T11:50:51.902Z,101711.50
2022-11-10T11:53:46.397Z,101717.00
2022-11-10T11:56:27.068Z,101709.34
2022-11-10T11:59:32.567Z,101713.84
2022-11-10T12:02:23.680Z,101711.59
2022-11-10T12:05:04.061Z,101722.09
2022-11-10T12:07:56.073Z,101723.38
2022-11-10T12:10:52.835Z,101724.72
2022-11-10T12:13:47.520Z,101728.13
2022-11-10T12:16:23.456Z,101725.25
2022-11-10T12:19:01.372Z,101723.72
2022-11-10T12:21:32.850Z,101723.25
2022-11-10T12:24:37.438Z,101731.34
2022-11-10T12:27:15.494Z,101735.63
2022-11-10T12:30:03.242Z,101735.22
2022-11-10T12:32:46.862Z,101734.31
2022-11-10T12:35:20.286Z,101745.16
2022-11-10T12:37:53.719Z,101724.22
2022-11-10T12:40:27.791Z,101736.22
2022-11-10T12:43:00.458Z,101745.06
2022-11-10T12:45:32.548Z,101751.69
2022-11-10T12:47:59.882Z,101744.09
2022-11-10T12:50:42.395Z,101761.84
2022-11-10T12:53:31.306Z,101772.09
2022-11-10T12:56:11.748Z,101773.94
2022-11-10T12:58:38.238Z,101772.66
2022-11-10T13:01:14.697Z,101779.25
2022-11-10T13:03:54.278Z,101778.03
2022-11-10T13:06:50.639Z,101768.34
2022-11-10T13:09:32.091Z,101778.66
2022-11-10T13:12:10.749Z,101781.34
2022-11-10T13:14:38.575Z,101784.84
2022-11-10T13:17:05.629Z,101799.50
2022-11-10T13:19:38.906Z,101797.88
2022-11-10T13:22:10.220Z,101797.59
2022-11-10T13:24:38.514Z,101805.03
2022-11-10T13:27:13.952Z,101814.63
2022-11-10T13:29:43.470Z,101813.50
2022-11-10T13:32:25.479Z,101812.72
2022-11-10T13:34:52.647Z,101808.75
2022-11-10T13:37:46.919Z,101812.72
2022-11-10T13:40:25.686Z,101816.16
2022-11-10T13:42:58.276Z,101809.84
2022-11-10T13:45:43.288Z,101801.75
2022-11-10T13:48:12.840Z,101797.22
2022-11-10T13:51:01.341Z,101797.22
2022-11-10T13:53:49.666Z,101802.69
2022-11-10T13:56:41.608Z,101806.09
2022-11-10T13:59:27.381Z,101821.53
2022-11-10T14:01:53.930Z,101820.84
2022-11-10T14:04:35.702Z,101813.78
2022-11-10T14:07:03.763Z,101810.31
2022-11-10T14:09:41.451Z,101799.84
2022-11-10T14:12:28.792Z,101807.56
2022-11-10T14:15:00.767Z,101814.56
2022-11-10T14:17:29.867Z,101811.13
2022-11-10T14:19:56.421Z,101812.16
2022-11-10T14:22:27.816Z,101809.53
2022-11-10T14:24:57.607Z,101826.88
2022-11-10T14:27:27.307Z,101836.06
2022-11-10T14:30:30.448Z,101839.66
2022-11-10T14:33:14.388Z,101858.69
2022-11-10T14:36:13.452Z,101847.34
2022-11-10T14:38:43.804Z,101856.22
2022-11-10T14:41:16.792Z,101865.69
2022-11-10T14:43:43.257Z,101857.00
2022-11-10T14:46:15.303Z,101862.09
2022-11-10T14:48:41.841Z,101849.78
2022-11-10T14:51:17.448Z,101855.03
2022-11-10T14:53:48.472Z,101853.97
2022-11-10T14:56:19.750Z,101853.00
2022-11-10T14:58:47.269Z,101850.47
2022-11-10T15:01:34.652Z,101843.81
2022-11-10T15:04:03.324Z,101846.16
2022-11-10T15:06:30.142Z,101844.25
2022-11-10T15:08:57.044Z,101844.44
2022-11-10T15:11:41.437Z,101853.09
2022-11-10T15:14:44.733Z,101873.06
2022-11-10T15:17:20.400Z,101872.50
2022-11-10T15:19:46.994Z,101866.22
2022-11-10T15:22:18.177Z,101869.66
2022-11-10T15:24:46.930Z,101873.03
2022-11-10T15:27:23.473Z,101870.47
2022-11-10T15:29:50.708Z,101881.53
2022-11-10T15:32:21.127Z,101889.47
2022-11-10T15:34:48.833Z,101882.25
2022-11-10T15:37:31.100Z,101873.28
2022-11-10T15:40:46.696Z,101876.63
2022-11-10T15:43:26.769Z,101878.75
2022-11-10T15:46:15.014Z,101883.03
2022-11-10T15:48:49.269Z,101888.34
2022-11-10T15:51:22.841Z,101877.84
2022-11-10T15:53:54.304Z,101880.50
2022-11-10T15:56:22.675Z,101886.09
2022-11-10T15:58:51.048Z,101871.34
2022-11-10T16:01:18.007Z,101884.63
2022-11-10T16:03:45.855Z,101879.00
2022-11-10T16:06:16.482Z,101879.56
2022-11-10T16:08:43.270Z,101881.28
2022-11-10T16:11:17.440Z,101873.47
2022-11-10T16:13:44.060Z,101875.03
2022-11-10T16:16:15.378Z,101877.00
2022-11-10T16:18:43.932Z,101879.13
2022-11-10T16:21:19.753Z,101874.03
2022-11-10T16:23:46.781Z,101878.63
2022-11-10T16:26:14.818Z,101884.22
2022-11-10T16:28:44.118Z,101886.31
2022-11-10T16:31:11.539Z,101888.44
2022-11-10T16:33:38.161Z,101897.59
2022-11-10T16:36:04.927Z,101892.75
2022-11-10T16:38:32.144Z,101904.03
2022-11-10T16:41:03.694Z,101895.75
2022-11-10T16:43:31.411Z,101899.97
2022-11-10T16:46:00.587Z,101890.03
2022-11-10T16:48:31.967Z,101886.69
2022-11-10T16:51:00.102Z,101883.78
2022-11-10T16:53:31.283Z,101888.59
2022-11-10T16:55:58.328Z,101883.16
2022-11-10T16:58:26.039Z,101875.53
2022-11-10T17:00:54.198Z,101880.38
2022-11-10T17:03:27.316Z,101882.34
2022-11-10T17:05:53.839Z,101878.06
2022-11-10T17:08:23.207Z,101893.72
2022-11-10T17:10:50.939Z,101905.16
2022-11-10T17:13:18.018Z,101902.25
2022-11-10T17:15:45.467Z,101913.66
2022-11-10T17:18:17.309Z,101910.78
2022-11-10T17:20:47.025Z,101907.44
2022-11-10T17:23:14.677Z,101904.84
2022-11-10T17:25:41.652Z,101900.34
2022-11-10T17:28:16.556Z,101905.41
2022-11-10T17:30:43.194Z,101914.94
2022-11-10T17:33:10.174Z,101923.88
2022-11-10T17:35:45.514Z,101923.72
2022-11-10T17:38:13.389Z,101916.56
2022-11-10T17:40:42.131Z,101923.47
2022-11-10T17:43:12.964Z,101921.25
2022-11-10T17:45:39.841Z,101924.69
2022-11-10T17:48:07.136Z,101914.72
2022-11-10T17:50:35.792Z,101913.00
2022-11-10T17:53:23.332Z,101917.50
2022-11-10T17:55:50.252Z,101926.78
2022-11-10T17:58:17.611Z,101936.75
2022-11-10T18:00:47.473Z,101933.19
2022-11-10T18:03:19.663Z,101936.91
2022-11-10T18:05:54.476Z,101944.31
2022-11-10T18:08:20.959Z,101938.06
2022-11-10T18:14:56.379Z,101938.44
2022-11-10T18:17:25.432Z,101937.44
2022-11-10T18:19:52.661Z,101930.56
2022-11-10T18:22:22.757Z,101929.38
2022-11-10T18:24:49.678Z,101933.47
2022-11-10T18:27:16.879Z,101926.94
2022-11-10T18:29:43.915Z,101932.91
2022-11-10T18:32:30.713Z,101932.91
2022-11-10T18:35:00.359Z,101932.59
2022-11-10T18:37:30.447Z,101933.66
2022-11-10T18:39:57.277Z,101940.66
2022-11-10T18:42:35.439Z,101941.94
2022-11-10T18:45:03.647Z,101948.97
2022-11-10T18:47:30.851Z,101950.31
2022-11-10T18:49:58.440Z,101946.53
2022-11-10T18:52:26.425Z,101944.44
2022-11-10T18:54:54.627Z,101942.69
2022-11-10T18:57:22.715Z,101945.75
2022-11-10T18:59:51.045Z,101940.97
2022-11-10T19:02:21.296Z,101947.78
2022-11-10T19:04:53.399Z,101945.25
2022-11-10T19:07:24.994Z,101949.53
2022-11-10T19:09:52.631Z,101947.16
2022-11-10T19:12:25.434Z,101958.56
2022-11-10T19:14:58.607Z,101954.84
2022-11-10T19:17:25.559Z,101955.63
2022-11-10T19:19:56.454Z,101964.47
2022-11-10T19:22:23.934Z,101956.91
2022-11-10T19:25:07.484Z,101966.22
2022-11-10T19:27:35.521Z,101948.84
2022-11-10T19:30:02.167Z,101956.91
2022-11-10T19:32:29.920Z,101949.53
2022-11-10T19:34:59.275Z,101951.19
2022-11-10T19:37:28.674Z,101939.34
2022-11-10T19:39:58.998Z,101939.38
2022-11-10T19:42:26.080Z,101943.75
2022-11-10T19:44:54.413Z,101950.56
2022-11-10T19:47:21.868Z,101947.00
2022-11-10T19:49:50.630Z,101946.69
2022-11-10T19:52:27.620Z,101952.97
2022-11-10T19:54:54.469Z,101974.13
2022-11-10T19:57:22.805Z,101973.94
2022-11-10T19:59:49.964Z,101993.22
2022-11-10T20:02:19.493Z,101997.09
2022-11-10T20:05:06.095Z,102003.72
2022-11-10T20:07:51.588Z,102008.31
2022-11-10T20:10:19.192Z,102007.53
2022-11-10T20:12:47.654Z,102008.09
2022-11-10T20:15:16.081Z,102010.69
2022-11-10T20:17:44.204Z,102007.56
2022-11-10T20:20:12.409Z,102012.56
2022-11-10T20:22:40.661Z,102012.13
2022-11-10T20:27:35.819Z,102020.50
2022-11-10T20:30:03.388Z,102026.16
2022-11-10T20:32:31.061Z,102031.06
2022-11-10T20:34:58.032Z,102028.31
2022-11-10T20:37:24.873Z,102027.59
2022-11-10T20:39:53.379Z,102010.06
2022-11-10T20:42:20.565Z,102011.66
2022-11-10T20:44:47.080Z,102008.38
2022-11-10T20:47:13.606Z,102011.44
2022-11-10T20:49:40.100Z,102001.88
2022-11-10T20:52:06.563Z,102005.44
2022-11-10T20:54:33.362Z,102014.94
2022-11-10T20:56:59.824Z,102016.56
2022-11-10T20:59:26.251Z,102015.31
2022-11-10T21:01:52.923Z,102017.09
2022-11-10T21:04:19.452Z,102019.25
2022-11-10T21:06:45.993Z,102023.91
2022-11-10T21:09:12.722Z,102035.28
2022-11-10T21:11:57.767Z,102031.00
2022-11-10T21:14:24.220Z,102037.38
2022-11-10T21:16:50.671Z,102043.44
2022-11-10T21:19:17.218Z,102049.03
2022-11-10T21:21:43.735Z,102047.97
2022-11-10T21:24:10.717Z,102051.50
2022-11-10T21:26:37.791Z,102051.22
2022-11-10T21:29:05.145Z,102056.34
2022-11-10T21:31:31.703Z,102064.19
2022-11-10T21:33:59.145Z,102056.97
2022-11-10T21:36:29.881Z,102058.06
2022-11-10T21:38:57.103Z,102065.44
2022-11-10T21:41:23.610Z,102060.94
2022-11-10T21:43:50.098Z,102054.81
2022-11-10T21:46:16.748Z,102058.59
2022-11-10T21:48:43.293Z,102044.50
2022-11-10T21:51:11.091Z,102046.00
2022-11-10T21:53:39.693Z,102039.28
2022-11-10T21:56:07.732Z,102028.50
2022-11-10T21:58:34.887Z,102035.28
2022-11-10T22:01:02.336Z,102039.66
2022-11-10T22:03:29.999Z,102029.91
2022-11-10T22:06:03.048Z,102029.94
2022-11-10T22:08:29.558Z,102039.09
2022-11-10T22:11:14.829Z,102037.03
2022-11-10T22:13:59.890Z,102028.91
2022-11-10T22:16:47.550Z,102040.84
2022-11-10T22:19:17.283Z,102047.84
2022-11-10T22:21:44.345Z,102041.53
2022-11-10T22:24:23.373Z,102047.84
2022-11-10T22:26:50.675Z,102052.25
2022-11-10T22:29:17.605Z,102045.84
2022-11-10T22:31:44.487Z,102054.34
2022-11-10T22:34:11.158Z,102058.47
2022-11-10T22:36:37.864Z,102051.44
2022-11-10T22:39:04.771Z,102044.69
2022-11-10T22:41:49.944Z,102056.16
2022-11-10T22:44:17.089Z,102068.50
2022-11-10T22:46:48.053Z,102060.41
2022-11-10T22:49:15.800Z,102062.50
2022-11-10T22:51:43.957Z,102071.09
2022-11-10T22:54:20.898Z,102054.03
2022-11-10T22:56:48.189Z,102065.34
2022-11-10T22:59:17.730Z,102064.38
2022-11-10T23:01:44.554Z,102067.00
2022-11-10T23:04:11.956Z,102065.13
2022-11-10T23:06:40.271Z,102066.13
2022-11-10T23:09:07.253Z,102068.66
2022-11-10T23:11:34.246Z,102067.72
2022-11-10T23:14:00.693Z,102065.41
2022-11-10T23:16:29.604Z,102065.13
2022-11-10T23:18:57.382Z,102078.88
2022-11-10T23:21:26.832Z,102066.94
2022-11-10T23:23:53.791Z,102079.75
2022-11-10T23:26:22.526Z,102085.00
2022-11-10T23:28:49.290Z,102077.16
2022-11-10T23:31:18.564Z,102086.41
2022-11-10T23:33:46.871Z,102072.34
2022-11-10T23:36:16.396Z,102072.63
2022-11-10T23:38:43.112Z,102065.72
2022-11-10T23:41:16.754Z,102073.00
2022-11-10T23:43:43.551Z,102073.34
2022-11-10T23:46:10.957Z,102068.91
2022-11-10T23:48:38.135Z,102073.84
2022-11-10T23:51:05.458Z,102073.63
2022-11-10T23:53:32.791Z,102076.41
2022-11-10T23:56:04.889Z,102076.03
2022-11-10T23:58:32.536Z,102076.66
